createdAt,value
2017-03-19T00:00:18.946Z,99712
2017-03-19T00:01:19.145Z,99709
2017-03-19T00:02:19.002Z,99711
2017-03-19T00:03:18.520Z,99705
2017-03-19T00:04:18.619Z,99701
2017-03-19T00:05:18.644Z,99698
2017-03-19T00:06:19.271Z,99701
2017-03-19T00:07:18.905Z,99696
2017-03-19T00:08:18.764Z,99700
2017-03-19T00:09:19.376Z,99699
2017-03-19T00:10:19.356Z,99710
2017-03-19T00:11:18.875Z,99711
2017-03-19T00:12:19.417Z,99709
2017-03-19T00:13:19.444Z,99714
2017-03-19T00:14:18.972Z,99713
2017-03-19T00:15:19.527Z,99714
2017-03-19T00:16:19.026Z,99711
2017-03-19T00:17:19.570Z,99711
2017-03-19T00:18:19.622Z,99712
2017-03-19T00:19:19.090Z,99713
2017-03-19T00:20:19.159Z,99713
2017-03-19T00:21:19.258Z,99709
2017-03-19T00:22:19.878Z,99710
2017-03-19T00:23:19.331Z,99704
2017-03-19T00:24:19.985Z,99714
2017-03-19T00:25:19.417Z,99708
2017-03-19T00:26:19.484Z,99709
2017-03-19T00:27:19.558Z,99711
2017-03-19T00:28:19.563Z,99713
2017-03-19T00:29:19.661Z,99707
2017-03-19T00:30:19.741Z,99707
2017-03-19T00:31:19.809Z,99706
2017-03-19T00:32:19.815Z,99712
2017-03-19T00:33:20.429Z,99703
2017-03-19T00:34:20.509Z,99714
2017-03-19T00:35:20.082Z,99711
2017-03-19T00:36:20.646Z,99714
2017-03-19T00:37:20.708Z,99714
2017-03-19T00:38:20.212Z,99715
2017-03-19T00:39:20.782Z,99713
2017-03-19T00:40:20.815Z,99715
2017-03-19T00:41:20.839Z,99718
2017-03-19T00:42:20.383Z,99717
2017-03-19T00:43:20.948Z,99715
2017-03-19T00:44:20.916Z,99714
2017-03-19T00:45:20.516Z,99711
2017-03-19T00:46:20.484Z,99703
2017-03-19T00:47:21.161Z,99695
2017-03-19T00:48:20.644Z,99696
2017-03-19T00:49:20.725Z,99690
2017-03-19T00:50:21.330Z,99692
2017-03-19T00:51:20.859Z,99694
2017-03-19T00:52:21.476Z,99688
2017-03-19T00:53:21.032Z,99694
2017-03-19T00:54:21.080Z,99697
2017-03-19T00:55:21.044Z,99701
2017-03-19T00:56:21.117Z,99704
2017-03-19T00:57:21.719Z,99703
2017-03-19T00:58:21.242Z,99700
2017-03-19T00:59:21.847Z,99692
2017-03-19T01:00:21.814Z,99687
2017-03-19T01:01:21.905Z,99688
2017-03-19T01:02:21.451Z,99689
2017-03-19T01:03:22.021Z,99692
2017-03-19T01:04:22.088Z,99689
2017-03-19T01:05:21.603Z,99690
2017-03-19T01:06:21.729Z,99686
2017-03-19T01:07:22.347Z,99687
2017-03-19T01:08:21.798Z,99684
2017-03-19T01:09:21.825Z,99681
2017-03-19T01:10:21.889Z,99683
2017-03-19T01:11:21.933Z,99686
2017-03-19T01:12:35.606Z,99688
2017-03-19T01:13:35.396Z,99686
2017-03-19T01:14:34.980Z,99691
2017-03-19T01:15:34.979Z,99692
2017-03-19T01:16:35.493Z,99686
2017-03-19T01:17:35.093Z,99698
2017-03-19T01:18:35.797Z,99702
2017-03-19T01:19:35.133Z,99697
2017-03-19T01:20:35.203Z,99703
2017-03-19T01:21:35.835Z,99701
2017-03-19T01:22:35.843Z,99695
2017-03-19T01:23:35.912Z,99695
2017-03-19T01:24:35.603Z,99695
2017-03-19T01:25:36.047Z,99688
2017-03-19T01:26:36.132Z,99685
2017-03-19T01:27:35.656Z,99678
2017-03-19T01:28:35.734Z,99679
2017-03-19T01:29:36.263Z,99684
2017-03-19T01:30:36.503Z,99683
2017-03-19T01:31:36.462Z,99683
2017-03-19T01:32:35.917Z,99679
2017-03-19T01:33:35.995Z,99680
2017-03-19T01:34:36.636Z,99680
2017-03-19T01:35:36.085Z,99684
2017-03-19T01:36:36.321Z,99682
2017-03-19T01:37:36.821Z,99677
2017-03-19T01:38:36.288Z,99676
2017-03-19T01:39:36.849Z,99666
2017-03-19T01:40:37.025Z,99670
2017-03-19T01:41:36.986Z,99673
2017-03-19T01:42:37.112Z,99669
2017-03-19T01:43:37.160Z,99665
2017-03-19T01:44:36.465Z,99672
2017-03-19T01:45:37.049Z,99675
2017-03-19T01:46:36.593Z,99668
2017-03-19T01:47:36.552Z,99679
2017-03-19T01:48:36.759Z,99677
2017-03-19T01:49:36.684Z,99673
2017-03-19T01:50:36.646Z,99676
2017-03-19T01:51:37.275Z,99667
2017-03-19T01:52:36.847Z,99673
2017-03-19T01:53:37.418Z,99668
2017-03-19T01:54:37.706Z,99672
2017-03-19T01:55:37.590Z,99675
2017-03-19T01:56:37.614Z,99673
2017-03-19T01:57:37.137Z,99675
2017-03-19T01:58:37.715Z,99671
2017-03-19T01:59:37.705Z,99673
2017-03-19T02:00:38.015Z,99668
2017-03-19T02:01:37.357Z,99673
2017-03-19T02:02:38.021Z,99667
2017-03-19T02:03:37.491Z,99673
2017-03-19T02:04:38.006Z,99672
2017-03-19T02:05:37.493Z,99665
2017-03-19T02:06:38.297Z,99669
2017-03-19T02:07:37.613Z,99668
2017-03-19T02:08:38.163Z,99667
2017-03-19T02:09:38.199Z,99663
2017-03-19T02:10:37.732Z,99660
2017-03-19T02:11:38.987Z,99662
2017-03-19T02:12:38.586Z,99659
2017-03-19T02:13:37.958Z,99651
2017-03-19T02:14:38.014Z,99659
2017-03-19T02:15:38.595Z,99654
2017-03-19T02:16:38.035Z,99654
2017-03-19T02:17:38.045Z,99661
2017-03-19T02:18:38.824Z,99664
2017-03-19T02:19:38.148Z,99658
2017-03-19T02:20:38.677Z,99662
2017-03-19T02:21:38.221Z,99665
2017-03-19T02:22:38.750Z,99661
2017-03-19T02:23:38.867Z,99659
2017-03-19T02:24:38.459Z,99655
2017-03-19T02:25:38.918Z,99661
2017-03-19T02:26:38.934Z,99655
2017-03-19T02:27:38.501Z,99649
2017-03-19T02:28:38.547Z,99651
2017-03-19T02:29:39.214Z,99650
2017-03-19T02:30:39.356Z,99643
2017-03-19T02:31:39.267Z,99651
2017-03-19T02:32:38.835Z,99644
2017-03-19T02:33:39.406Z,99651
2017-03-19T02:34:39.485Z,99646
2017-03-19T02:35:39.221Z,99648
2017-03-19T02:36:39.517Z,99643
2017-03-19T02:37:39.080Z,99644
2017-03-19T02:38:39.666Z,99649
2017-03-19T02:39:39.721Z,99650
2017-03-19T02:40:39.357Z,99649
2017-03-19T02:41:39.563Z,99638
2017-03-19T02:42:39.391Z,99641
2017-03-19T02:43:40.048Z,99637
2017-03-19T02:44:39.583Z,99636
2017-03-19T02:45:40.091Z,99637
2017-03-19T02:46:39.637Z,99634
2017-03-19T02:47:40.349Z,99638
2017-03-19T02:48:39.733Z,99635
2017-03-19T02:49:39.783Z,99637
2017-03-19T02:50:40.364Z,99637
2017-03-19T02:51:39.842Z,99640
2017-03-19T02:52:40.491Z,99642
2017-03-19T02:53:40.139Z,99638
2017-03-19T02:54:40.577Z,99634
2017-03-19T02:55:40.851Z,99639
2017-03-19T02:56:40.288Z,99633
2017-03-19T02:57:40.388Z,99621
2017-03-19T02:58:40.303Z,99610
2017-03-19T02:59:41.063Z,99599
2017-03-19T03:00:40.949Z,99593
2017-03-19T03:01:40.965Z,99588
2017-03-19T03:02:40.463Z,99590
2017-03-19T03:03:41.076Z,99595
2017-03-19T03:04:41.142Z,99601
2017-03-19T03:05:41.344Z,99610
2017-03-19T03:06:40.746Z,99615
2017-03-19T03:07:40.778Z,99622
2017-03-19T03:08:41.429Z,99628
2017-03-19T03:09:41.459Z,99625
2017-03-19T03:10:40.955Z,99630
2017-03-19T03:11:41.515Z,99626
2017-03-19T03:12:41.478Z,99621
2017-03-19T03:13:41.540Z,99610
2017-03-19T03:14:41.533Z,99607
2017-03-19T03:15:41.652Z,99610
2017-03-19T03:16:42.273Z,99602
2017-03-19T03:17:41.656Z,99605
2017-03-19T03:18:41.141Z,99601
2017-03-19T03:19:41.757Z,99605
2017-03-19T03:20:41.848Z,99599
2017-03-19T03:21:41.845Z,99598
2017-03-19T03:22:41.905Z,99587
2017-03-19T03:23:41.382Z,99592
2017-03-19T03:24:42.068Z,99593
2017-03-19T03:25:41.601Z,99601
2017-03-19T03:26:42.079Z,99596
2017-03-19T03:27:42.236Z,99595
2017-03-19T03:28:42.224Z,99588
2017-03-19T03:29:41.827Z,99584
2017-03-19T03:30:41.871Z,99585
2017-03-19T03:31:41.841Z,99586
2017-03-19T03:32:41.960Z,99585
2017-03-19T03:33:41.958Z,99590
2017-03-19T03:34:41.952Z,99591
2017-03-19T03:35:42.035Z,99592
2017-03-19T03:36:42.539Z,99591
2017-03-19T03:37:42.608Z,99590
2017-03-19T03:38:42.207Z,99586
2017-03-19T03:39:42.249Z,99590
2017-03-19T03:40:42.798Z,99589
2017-03-19T03:41:42.856Z,99581
2017-03-19T03:42:42.301Z,99590
2017-03-19T03:43:42.341Z,99587
2017-03-19T03:44:42.885Z,99589
2017-03-19T03:45:42.457Z,99592
2017-03-19T03:46:42.419Z,99585
2017-03-19T03:47:43.037Z,99593
2017-03-19T03:48:42.529Z,99600
2017-03-19T03:49:43.206Z,99601
2017-03-19T03:50:43.239Z,99603
2017-03-19T03:51:43.410Z,99599
2017-03-19T03:52:43.321Z,99598
2017-03-19T03:53:43.310Z,99600
2017-03-19T03:54:43.376Z,99598
2017-03-19T03:55:43.440Z,99597
2017-03-19T03:56:43.531Z,99589
2017-03-19T03:57:43.055Z,99596
2017-03-19T03:58:43.141Z,99594
2017-03-19T03:59:43.698Z,99602
2017-03-19T04:00:43.789Z,99591
2017-03-19T04:01:43.737Z,99586
2017-03-19T04:02:43.669Z,99587
2017-03-19T04:03:43.199Z,99580
2017-03-19T04:04:43.251Z,99572
2017-03-19T04:05:43.820Z,99573
2017-03-19T04:06:43.255Z,99576
2017-03-19T04:07:43.314Z,99564
2017-03-19T04:08:43.366Z,99572
2017-03-19T04:09:43.394Z,99570
2017-03-19T04:10:44.029Z,99567
2017-03-19T04:11:43.463Z,99569
2017-03-19T04:12:43.613Z,99568
2017-03-19T04:13:44.242Z,99559
2017-03-19T04:14:44.215Z,99563
2017-03-19T04:15:43.796Z,99566
2017-03-19T04:16:43.833Z,99568
2017-03-19T04:17:43.903Z,99562
2017-03-19T04:18:44.567Z,99568
2017-03-19T04:19:44.626Z,99564
2017-03-19T04:20:44.108Z,99569
2017-03-19T04:21:44.218Z,99564
2017-03-19T04:22:44.214Z,99568
2017-03-19T04:23:44.830Z,99569
2017-03-19T04:24:44.848Z,99570
2017-03-19T04:25:44.893Z,99567
2017-03-19T04:26:44.903Z,99565
2017-03-19T04:27:44.465Z,99568
2017-03-19T04:28:44.546Z,99562
2017-03-19T04:29:44.544Z,99564
2017-03-19T04:30:45.197Z,99567
2017-03-19T04:31:44.725Z,99567
2017-03-19T04:32:44.739Z,99559
2017-03-19T04:33:45.386Z,99567
2017-03-19T04:34:44.837Z,99560
2017-03-19T04:35:44.933Z,99569
2017-03-19T04:36:45.546Z,99567
2017-03-19T04:37:45.578Z,99573
2017-03-19T04:38:45.080Z,99573
2017-03-19T04:39:45.138Z,99567
2017-03-19T04:40:45.701Z,99572
2017-03-19T04:41:45.747Z,99570
2017-03-19T04:42:45.855Z,99559
2017-03-19T04:43:45.899Z,99566
2017-03-19T04:44:45.382Z,99561
2017-03-19T04:45:45.928Z,99565
2017-03-19T04:46:45.999Z,99557
2017-03-19T04:47:45.534Z,99564
2017-03-19T04:48:45.634Z,99563
2017-03-19T04:49:45.654Z,99560
2017-03-19T04:50:46.288Z,99561
2017-03-19T04:51:45.857Z,99558
2017-03-19T04:52:46.428Z,99564
2017-03-19T04:53:45.939Z,99556
2017-03-19T04:54:46.010Z,99563
2017-03-19T04:55:46.013Z,99565
2017-03-19T04:56:46.143Z,99562
2017-03-19T04:57:46.162Z,99552
2017-03-19T04:58:46.820Z,99555
2017-03-19T04:59:46.852Z,99557
2017-03-19T05:00:46.328Z,99552
2017-03-19T05:01:46.412Z,99554
2017-03-19T05:02:46.434Z,99555
2017-03-19T05:03:46.456Z,99549
2017-03-19T05:04:46.526Z,99549
2017-03-19T05:05:47.085Z,99550
2017-03-19T05:06:47.170Z,99551
2017-03-19T05:07:46.656Z,99551
2017-03-19T05:08:46.725Z,99549
2017-03-19T05:09:47.375Z,99551
2017-03-19T05:10:46.842Z,99547
2017-03-19T05:11:47.487Z,99553
2017-03-19T05:12:47.494Z,99555
2017-03-19T05:13:47.534Z,99559
2017-03-19T05:14:47.004Z,99562
2017-03-19T05:15:47.598Z,99563
2017-03-19T05:16:47.622Z,99567
2017-03-19T05:17:47.107Z,99562
2017-03-19T05:18:47.141Z,99568
2017-03-19T05:19:47.159Z,99562
2017-03-19T05:20:47.260Z,99569
2017-03-19T05:21:47.776Z,99568
2017-03-19T05:22:47.848Z,99568
2017-03-19T05:23:47.361Z,99567
2017-03-19T05:24:47.380Z,99566
2017-03-19T05:25:47.937Z,99565
2017-03-19T05:26:47.357Z,99566
2017-03-19T05:27:47.953Z,99568
2017-03-19T05:28:47.998Z,99561
2017-03-19T05:29:48.028Z,99563
2017-03-19T05:30:47.546Z,99560
2017-03-19T05:31:47.641Z,99561
2017-03-19T05:32:48.183Z,99562
2017-03-19T05:33:48.301Z,99564
2017-03-19T05:34:48.339Z,99566
2017-03-19T05:35:48.422Z,99572
2017-03-19T05:36:47.955Z,99572
2017-03-19T05:37:48.560Z,99564
2017-03-19T05:38:48.581Z,99560
2017-03-19T05:39:48.098Z,99553
2017-03-19T05:40:48.658Z,99558
2017-03-19T05:41:48.759Z,99559
2017-03-19T05:42:48.821Z,99572
2017-03-19T05:43:48.288Z,99572
2017-03-19T05:44:48.879Z,99570
2017-03-19T05:45:48.933Z,99575
2017-03-19T05:46:49.028Z,99572
2017-03-19T05:47:49.037Z,99565
2017-03-19T05:48:48.616Z,99568
2017-03-19T05:49:48.680Z,99565
2017-03-19T05:50:49.284Z,99564
2017-03-19T05:51:48.840Z,99569
2017-03-19T05:52:49.388Z,99571
2017-03-19T05:53:48.926Z,99567
2017-03-19T05:54:48.923Z,99564
2017-03-19T05:55:49.508Z,99563
2017-03-19T05:56:48.964Z,99562
2017-03-19T05:57:49.047Z,99557
2017-03-19T05:58:49.601Z,99552
2017-03-19T05:59:49.693Z,99556
2017-03-19T06:00:49.160Z,99550
2017-03-19T06:01:49.780Z,99539
2017-03-19T06:02:49.282Z,99543
2017-03-19T06:03:49.373Z,99542
2017-03-19T06:04:49.991Z,99545
2017-03-19T06:05:49.507Z,99546
2017-03-19T06:06:49.554Z,99542
2017-03-19T06:07:50.124Z,99542
2017-03-19T06:08:49.711Z,99539
2017-03-19T06:09:50.296Z,99543
2017-03-19T06:10:50.406Z,99537
2017-03-19T06:11:49.852Z,99535
2017-03-19T06:12:49.913Z,99525
2017-03-19T06:13:50.575Z,99524
2017-03-19T06:14:50.628Z,99523
2017-03-19T06:15:50.139Z,99511
2017-03-19T06:16:50.217Z,99508
2017-03-19T06:17:50.853Z,99503
2017-03-19T06:18:50.862Z,99497
2017-03-19T06:19:50.370Z,99489
2017-03-19T06:20:50.394Z,99494
2017-03-19T06:21:50.425Z,99493
2017-03-19T06:22:50.445Z,99490
2017-03-19T06:23:50.982Z,99496
2017-03-19T06:24:51.075Z,99499
2017-03-19T06:25:50.576Z,99502
2017-03-19T06:26:51.158Z,99497
2017-03-19T06:27:50.683Z,99497
2017-03-19T06:28:51.294Z,99509
2017-03-19T06:29:51.318Z,99505
2017-03-19T06:30:50.785Z,99508
2017-03-19T06:31:51.368Z,99503
2017-03-19T06:32:51.499Z,99512
2017-03-19T06:33:51.507Z,99511
2017-03-19T06:34:50.928Z,99514
2017-03-19T06:35:51.539Z,99514
2017-03-19T06:36:50.986Z,99515
2017-03-19T06:37:51.025Z,99517
2017-03-19T06:38:51.628Z,99525
2017-03-19T06:39:51.687Z,99518
2017-03-19T06:40:51.764Z,99521
2017-03-19T06:41:51.218Z,99522
2017-03-19T06:42:51.797Z,99525
2017-03-19T06:43:51.310Z,99526
2017-03-19T06:44:51.976Z,99523
2017-03-19T06:45:51.453Z,99524
2017-03-19T06:46:52.077Z,99523
2017-03-19T06:47:51.590Z,99522
2017-03-19T06:48:52.199Z,99523
2017-03-19T06:49:52.299Z,99517
2017-03-19T06:50:52.302Z,99519
2017-03-19T06:51:51.854Z,99509
2017-03-19T06:52:52.442Z,99501
2017-03-19T06:54:52.488Z,99501
2017-03-19T06:55:52.017Z,99506
2017-03-19T06:56:51.985Z,99514
2017-03-19T06:57:52.625Z,99516
2017-03-19T06:58:52.113Z,99512
2017-03-19T06:59:52.997Z,99507
2017-03-19T07:00:52.278Z,99499
2017-03-19T07:01:52.855Z,99503
2017-03-19T07:02:52.854Z,99501
2017-03-19T07:03:52.882Z,99499
2017-03-19T07:04:52.463Z,99494
2017-03-19T07:05:53.225Z,99506
2017-03-19T07:06:53.145Z,99504
2017-03-19T07:07:53.170Z,99495
2017-03-19T07:08:53.164Z,99510
2017-03-19T07:09:52.648Z,99501
2017-03-19T07:10:53.286Z,99503
2017-03-19T07:11:53.547Z,99507
2017-03-19T07:12:53.440Z,99502
2017-03-19T07:13:53.540Z,99505
2017-03-19T07:14:53.016Z,99507
2017-03-19T07:15:53.591Z,99506
2017-03-19T07:16:53.019Z,99503
2017-03-19T07:17:53.825Z,99507
2017-03-19T07:18:53.693Z,99512
2017-03-19T07:19:53.711Z,99518
2017-03-19T07:20:53.772Z,99517
2017-03-19T07:21:53.777Z,99517
2017-03-19T07:22:53.235Z,99513
2017-03-19T07:23:54.053Z,99520
2017-03-19T07:24:53.330Z,99523
2017-03-19T07:25:53.854Z,99525
2017-03-19T07:26:53.914Z,99538
2017-03-19T07:27:53.996Z,99532
2017-03-19T07:28:54.020Z,99527
2017-03-19T07:29:53.696Z,99531
2017-03-19T07:30:53.587Z,99529
2017-03-19T07:31:53.606Z,99532
2017-03-19T07:32:53.628Z,99521
2017-03-19T07:33:53.697Z,99532
2017-03-19T07:34:54.279Z,99522
2017-03-19T07:35:54.019Z,99527
2017-03-19T07:36:54.486Z,99525
2017-03-19T07:37:54.478Z,99522
2017-03-19T07:38:54.072Z,99520
2017-03-19T07:39:54.689Z,99521
2017-03-19T07:40:54.682Z,99517
2017-03-19T07:41:54.398Z,99521
2017-03-19T07:42:54.343Z,99517
2017-03-19T07:43:54.411Z,99511
2017-03-19T07:44:54.500Z,99511
2017-03-19T07:45:55.139Z,99519
2017-03-19T07:46:55.201Z,99514
2017-03-19T07:47:55.449Z,99514
2017-03-19T07:48:54.870Z,99519
2017-03-19T07:49:55.355Z,99510
2017-03-19T07:50:55.493Z,99510
2017-03-19T07:51:55.498Z,99512
2017-03-19T07:52:55.006Z,99511
2017-03-19T07:53:55.210Z,99510
2017-03-19T07:54:55.105Z,99515
2017-03-19T07:55:55.110Z,99522
2017-03-19T07:56:55.653Z,99521
2017-03-19T07:57:55.772Z,99516
2017-03-19T07:58:55.294Z,99523
2017-03-19T07:59:56.004Z,99515
2017-03-19T08:00:55.322Z,99526
2017-03-19T08:01:55.377Z,99514
2017-03-19T08:02:55.926Z,99514
2017-03-19T08:03:55.441Z,99513
2017-03-19T08:04:55.512Z,99514
2017-03-19T08:05:55.644Z,99509
2017-03-19T08:06:55.584Z,99508
2017-03-19T08:07:56.208Z,99512
2017-03-19T08:08:55.728Z,99509
2017-03-19T08:09:55.790Z,99513
2017-03-19T08:10:55.800Z,99509
2017-03-19T08:11:55.961Z,99508
2017-03-19T08:12:55.880Z,99510
2017-03-19T08:13:55.901Z,99511
2017-03-19T08:14:55.921Z,99519
2017-03-19T08:15:56.504Z,99517
2017-03-19T08:16:56.024Z,99513
2017-03-19T08:17:56.403Z,99515
2017-03-19T08:18:56.720Z,99518
2017-03-19T08:19:56.836Z,99515
2017-03-19T08:20:56.332Z,99519
2017-03-19T08:21:56.845Z,99525
2017-03-19T08:22:56.962Z,99518
2017-03-19T08:23:56.604Z,99519
2017-03-19T08:24:57.080Z,99519
2017-03-19T08:25:57.129Z,99526
2017-03-19T08:26:56.630Z,99517
2017-03-19T08:27:56.602Z,99525
2017-03-19T08:28:56.713Z,99523
2017-03-19T08:29:56.937Z,99518
2017-03-19T08:30:57.279Z,99523
2017-03-19T08:31:57.354Z,99521
2017-03-19T08:32:56.930Z,99519
2017-03-19T08:33:56.899Z,99524
2017-03-19T08:34:56.946Z,99516
2017-03-19T08:35:57.704Z,99517
2017-03-19T08:36:57.016Z,99520
2017-03-19T08:37:57.607Z,99524
2017-03-19T08:38:57.648Z,99516
2017-03-19T08:39:57.643Z,99521
2017-03-19T08:40:57.242Z,99523
2017-03-19T08:41:57.984Z,99512
2017-03-19T08:42:57.833Z,99517
2017-03-19T08:43:57.314Z,99516
2017-03-19T08:44:57.415Z,99519
2017-03-19T08:45:57.441Z,99510
2017-03-19T08:46:58.118Z,99510
2017-03-19T08:47:58.322Z,99515
2017-03-19T08:48:58.222Z,99524
2017-03-19T08:49:58.243Z,99517
2017-03-19T08:50:57.707Z,99519
2017-03-19T08:51:57.784Z,99524
2017-03-19T08:52:57.845Z,99523
2017-03-19T08:53:58.623Z,99512
2017-03-19T08:54:58.530Z,99512
2017-03-19T08:55:58.643Z,99517
2017-03-19T08:56:58.648Z,99515
2017-03-19T08:57:58.214Z,99521
2017-03-19T08:58:58.224Z,99523
2017-03-19T08:59:58.451Z,99516
2017-03-19T09:00:58.404Z,99525
2017-03-19T09:01:58.944Z,99524
2017-03-19T09:02:58.401Z,99512
2017-03-19T09:03:59.058Z,99516
2017-03-19T09:04:58.545Z,99525
2017-03-19T09:05:58.765Z,99524
2017-03-19T09:06:59.231Z,99532
2017-03-19T09:07:59.271Z,99522
2017-03-19T09:08:58.734Z,99530
2017-03-19T09:09:58.817Z,99514
2017-03-19T09:10:59.591Z,99528
2017-03-19T09:11:58.960Z,99519
2017-03-19T09:12:59.549Z,99515
2017-03-19T09:13:59.077Z,99510
2017-03-19T09:14:59.656Z,99518
2017-03-19T09:15:59.679Z,99509
2017-03-19T09:16:59.376Z,99513
2017-03-19T09:17:59.792Z,99515
2017-03-19T09:18:59.295Z,99517
2017-03-19T09:19:59.836Z,99513
2017-03-19T09:20:59.933Z,99493
2017-03-19T09:22:00.008Z,99506
2017-03-19T09:23:00.270Z,99499
2017-03-19T09:24:00.165Z,99511
2017-03-19T09:24:59.698Z,99511
2017-03-19T09:25:59.745Z,99514
2017-03-19T09:27:00.291Z,99512
2017-03-19T09:27:59.836Z,99510
2017-03-19T09:29:00.543Z,99519
2017-03-19T09:30:00.439Z,99520
2017-03-19T09:31:00.537Z,99526
2017-03-19T09:32:00.633Z,99526
2017-03-19T09:33:00.185Z,99527
2017-03-19T09:34:00.785Z,99528
2017-03-19T09:35:00.986Z,99523
2017-03-19T09:36:00.893Z,99532
2017-03-19T09:37:00.351Z,99530
2017-03-19T09:38:00.395Z,99519
2017-03-19T09:39:00.430Z,99531
2017-03-19T09:40:01.029Z,99526
2017-03-19T09:41:01.199Z,99529
2017-03-19T09:42:00.529Z,99537
2017-03-19T09:43:01.065Z,99536
2017-03-19T09:44:01.165Z,99526
2017-03-19T09:45:01.180Z,99534
2017-03-19T09:46:01.283Z,99536
2017-03-19T09:47:01.522Z,99525
2017-03-19T09:48:01.409Z,99526
2017-03-19T09:49:01.512Z,99525
2017-03-19T09:50:01.040Z,99522
2017-03-19T09:51:01.610Z,99542
2017-03-19T09:52:01.115Z,99533
2017-03-19T09:53:01.275Z,99533
2017-03-19T09:54:01.665Z,99535
2017-03-19T09:55:01.637Z,99532
2017-03-19T09:56:01.144Z,99537
2017-03-19T09:57:01.174Z,99526
2017-03-19T09:58:01.251Z,99527
2017-03-19T09:59:01.478Z,99539
2017-03-19T10:00:01.867Z,99539
2017-03-19T10:01:01.921Z,99538
2017-03-19T10:02:02.003Z,99531
2017-03-19T10:03:02.146Z,99535
2017-03-19T10:04:02.189Z,99533
2017-03-19T10:05:02.400Z,99537
2017-03-19T10:06:02.278Z,99539
2017-03-19T10:07:01.796Z,99534
2017-03-19T10:08:01.923Z,99537
2017-03-19T10:09:02.491Z,99532
2017-03-19T10:10:02.527Z,99535
2017-03-19T10:11:02.026Z,99527
2017-03-19T10:12:02.113Z,99531
2017-03-19T10:13:02.738Z,99521
2017-03-19T10:14:02.803Z,99531
2017-03-19T10:15:02.853Z,99528
2017-03-19T10:16:02.352Z,99524
2017-03-19T10:17:02.918Z,99523
2017-03-19T10:18:02.474Z,99515
2017-03-19T10:19:02.550Z,99521
2017-03-19T10:20:02.629Z,99514
2017-03-19T10:21:02.628Z,99517
2017-03-19T10:22:03.201Z,99509
2017-03-19T10:23:02.720Z,99504
2017-03-19T10:24:03.325Z,99508
2017-03-19T10:25:02.805Z,99502
2017-03-19T10:26:02.840Z,99502
2017-03-19T10:27:02.891Z,99505
2017-03-19T10:28:03.492Z,99493
2017-03-19T10:29:03.569Z,99495
2017-03-19T10:30:03.669Z,99489
2017-03-19T10:31:03.094Z,99494
2017-03-19T10:32:03.675Z,99492
2017-03-19T10:33:03.269Z,99489
2017-03-19T10:34:03.852Z,99485
2017-03-19T10:35:03.306Z,99491
2017-03-19T10:36:03.303Z,99487
2017-03-19T10:37:03.384Z,99475
2017-03-19T10:38:03.952Z,99492
2017-03-19T10:39:03.974Z,99488
2017-03-19T10:40:03.967Z,99494
2017-03-19T10:41:03.997Z,99492
2017-03-19T10:42:04.103Z,99488
2017-03-19T10:43:04.215Z,99488
2017-03-19T10:44:04.179Z,99499
2017-03-19T10:45:03.694Z,99487
2017-03-19T10:46:04.276Z,99477
2017-03-19T10:47:04.343Z,99477
2017-03-19T10:48:04.393Z,99483
2017-03-19T10:49:04.478Z,99480
2017-03-19T10:50:03.909Z,99481
2017-03-19T10:51:03.988Z,99477
2017-03-19T10:52:04.665Z,99470
2017-03-19T10:53:04.685Z,99468
2017-03-19T10:54:04.745Z,99474
2017-03-19T10:55:04.783Z,99476
2017-03-19T10:56:04.888Z,99466
2017-03-19T10:57:04.951Z,99473
2017-03-19T10:58:05.032Z,99468
2017-03-19T10:59:05.072Z,99470
2017-03-19T11:00:04.581Z,99470
2017-03-19T11:01:04.652Z,99470
2017-03-19T11:02:05.263Z,99476
2017-03-19T11:03:05.310Z,99477
2017-03-19T11:04:04.841Z,99480
2017-03-19T11:05:05.503Z,99471
2017-03-19T11:06:05.524Z,99470
2017-03-19T11:07:05.026Z,99478
2017-03-19T11:08:05.673Z,99477
2017-03-19T11:09:05.727Z,99469
2017-03-19T11:10:05.732Z,99467
2017-03-19T11:11:05.814Z,99466
2017-03-19T11:12:05.818Z,99467
2017-03-19T11:13:05.817Z,99473
2017-03-19T11:14:05.909Z,99485
2017-03-19T11:15:05.968Z,99474
2017-03-19T11:16:05.997Z,99474
2017-03-19T11:17:06.056Z,99481
2017-03-19T11:19:05.574Z,99480
2017-03-19T11:20:06.137Z,99482
2017-03-19T11:21:05.692Z,99476
2017-03-19T11:22:05.681Z,99474
2017-03-19T11:23:06.251Z,99474
2017-03-19T11:24:05.774Z,99482
2017-03-19T11:25:06.309Z,99478
2017-03-19T11:26:06.950Z,99487
2017-03-19T11:27:05.928Z,99470
2017-03-19T11:28:06.554Z,99475
2017-03-19T11:29:06.547Z,99482
2017-03-19T11:30:06.614Z,99468
2017-03-19T11:31:06.616Z,99477
2017-03-19T11:32:06.105Z,99473
2017-03-19T11:33:06.660Z,99465
2017-03-19T11:34:06.158Z,99471
2017-03-19T11:35:06.777Z,99464
2017-03-19T11:36:06.749Z,99463
2017-03-19T11:37:06.780Z,99462
2017-03-19T11:38:06.318Z,99451
2017-03-19T11:39:06.937Z,99449
2017-03-19T11:40:06.438Z,99449
2017-03-19T11:41:07.047Z,99445
2017-03-19T11:42:07.080Z,99448
2017-03-19T11:43:07.206Z,99454
2017-03-19T11:44:06.635Z,99454
2017-03-19T11:45:07.247Z,99448
2017-03-19T11:46:07.322Z,99443
2017-03-19T11:47:06.884Z,99450
2017-03-19T11:48:06.864Z,99443
2017-03-19T11:49:06.922Z,99441
2017-03-19T11:50:07.465Z,99442
2017-03-19T11:51:06.964Z,99445
2017-03-19T11:52:07.554Z,99447
2017-03-19T11:53:07.607Z,99443
2017-03-19T11:54:07.166Z,99448
2017-03-19T11:55:07.782Z,99453
2017-03-19T11:56:07.322Z,99453
2017-03-19T11:57:07.907Z,99449
2017-03-19T11:58:07.415Z,99440
2017-03-19T11:59:08.000Z,99450
2017-03-19T12:00:08.073Z,99451
2017-03-19T12:01:08.108Z,99451
2017-03-19T12:02:07.705Z,99455
2017-03-19T12:03:08.279Z,99459
2017-03-19T12:04:07.767Z,99458
2017-03-19T12:05:08.372Z,99458
2017-03-19T12:06:07.891Z,99468
2017-03-19T12:07:07.925Z,99471
2017-03-19T12:08:07.966Z,99470
2017-03-19T12:09:08.079Z,99465
2017-03-19T12:10:08.606Z,99470
2017-03-19T12:11:08.060Z,99470
2017-03-19T12:12:08.122Z,99466
2017-03-19T12:13:08.633Z,99471
2017-03-19T12:14:08.157Z,99473
2017-03-19T12:15:08.762Z,99472
2017-03-19T12:16:08.814Z,99475
2017-03-19T12:17:08.875Z,99474
2017-03-19T12:18:08.387Z,99464
2017-03-19T12:19:08.967Z,99470
2017-03-19T12:20:08.421Z,99467
2017-03-19T12:21:09.038Z,99477
2017-03-19T12:22:08.560Z,99483
2017-03-19T12:23:09.211Z,99484
2017-03-19T12:24:09.195Z,99483
2017-03-19T12:25:08.685Z,99491
2017-03-19T12:26:08.652Z,99485
2017-03-19T12:27:08.770Z,99489
2017-03-19T12:28:08.742Z,99485
2017-03-19T12:29:09.348Z,99485
2017-03-19T12:30:09.369Z,99493
2017-03-19T12:31:08.876Z,99491
2017-03-19T12:32:08.988Z,99492
2017-03-19T12:33:09.592Z,99498
2017-03-19T12:34:09.097Z,99494
2017-03-19T12:35:09.707Z,99485
2017-03-19T12:36:09.810Z,99498
2017-03-19T12:37:09.299Z,99486
2017-03-19T12:38:09.857Z,99484
2017-03-19T12:39:09.912Z,99486
2017-03-19T12:40:09.409Z,99479
2017-03-19T12:41:10.020Z,99481
2017-03-19T12:42:10.079Z,99487
2017-03-19T12:43:09.636Z,99481
2017-03-19T12:44:09.647Z,99475
2017-03-19T12:45:09.771Z,99486
2017-03-19T12:46:09.728Z,99487
2017-03-19T12:47:10.325Z,99492
2017-03-19T12:48:09.767Z,99497
2017-03-19T12:49:09.846Z,99494
2017-03-19T12:50:09.879Z,99496
2017-03-19T12:51:10.430Z,99501
2017-03-19T12:52:10.502Z,99495
2017-03-19T12:53:10.590Z,99501
2017-03-19T12:54:10.080Z,99497
2017-03-19T12:55:10.071Z,99502